This is the latest recevied weather packets stored in our database for station/object JO1YDG-13. If no packets are shown the sender has not sent any weather packets the latest 10 day(s).
| Time | Temp. | Humidity | Pressure | Rain* | Wind** | Luminosity | Snow |
|---|---|---|---|---|---|---|---|
| 1777450868 | 21.11° C | 49% | 982.5 hPa | 0 mm | - | - | - |
| 1777450567 | 21.11° C | 45% | 982.5 hPa | 0 mm | - | - | - |
| 1777450267 | 21.11° C | 39% | 982.4 hPa | 0 mm | - | - | - |
| 1777449967 | 21.11° C | 33% | 982.4 hPa | 0 mm | - | - | - |
| 1777449667 | 21.11° C | 44% | 982.2 hPa | 0 mm | - | - | - |
| 1777448168 | 21.11° C | 66% | 981.5 hPa | 0 mm | - | - | - |
| 1777447867 | 21.11° C | 66% | 981.5 hPa | 0 mm | - | - | - |
| 1777447567 | 21.67° C | 66% | 981.4 hPa | 0 mm | - | - | - |
| 1777447267 | 21.67° C | 66% | 981.4 hPa | 0 mm | - | - | - |
| 1777446967 | 21.67° C | 64% | 981.4 hPa | 0 mm | - | - | - |
| 1777446666 | 21.67° C | 60% | 981.1 hPa | 0 mm | - | - | - |
| 1777446366 | 22.22° C | 57% | 981.1 hPa | 0 mm | - | - | - |
| 1777446068 | 22.22° C | 55% | 981.1 hPa | 0 mm | - | - | - |
| 1777445768 | 22.22° C | 56% | 981.1 hPa | 0 mm | - | - | - |
| 1777444866 | 22.22° C | 59% | 980.9 hPa | 0 mm | - | - | - |
| 1777444568 | 22.78° C | 56% | 980.9 hPa | 0 mm | - | - | - |
| 1777444268 | 23.33° C | 46% | 980.9 hPa | 0 mm | - | - | - |
| 1777443967 | 23.33° C | 46% | 980.7 hPa | 0 mm | - | - | - |
| 1777443666 | 23.33° C | 46% | 980.7 hPa | 0 mm | - | - | - |
| 1777443366 | 23.33° C | 46% | 980.7 hPa | 0 mm | - | - | - |
| 1777443068 | 23.33° C | 46% | 980.9 hPa | 0 mm | - | - | - |
| 1777442768 | 23.33° C | 46% | 980.9 hPa | 0 mm | - | - | - |
| 1777442467 | 23.33° C | 46% | 981.1 hPa | 0 mm | - | - | - |
| 1777442166 | 23.33° C | 54% | 981.1 hPa | 0 mm | - | - | - |
| 1777441868 | 23.33° C | 54% | 981 hPa | 0 mm | - | - | - |
* Rain latest hour (hover to see other rain measurements)
** Current wind speed in m/s (hover to see current wind gust speed)